createdAt,value
2023-10-25T00:01:47.387Z,26.33
2023-10-25T00:06:51.677Z,22.77
2023-10-25T00:11:55.744Z,21.17
2023-10-25T00:16:57.656Z,24.87
2023-10-25T00:21:59.549Z,23.03
2023-10-25T00:27:01.444Z,22.70
2023-10-25T00:32:03.451Z,23.20
2023-10-25T00:37:07.770Z,25.23
2023-10-25T00:42:10.414Z,21.57
2023-10-25T00:47:12.361Z,23.63
2023-10-25T00:52:14.383Z,21.90
2023-10-25T00:57:16.306Z,27.97
2023-10-25T01:02:19.065Z,23.87
2023-10-25T01:07:20.954Z,25.93
2023-10-25T01:12:22.864Z,27.93
2023-10-25T01:17:27.136Z,25.87
2023-10-25T01:22:31.416Z,31.37
2023-10-25T01:27:33.311Z,28.13
2023-10-25T01:32:35.136Z,27.20
2023-10-25T01:37:37.382Z,24.63
2023-10-25T01:42:39.729Z,27.73
2023-10-25T01:47:44.300Z,27.47
2023-10-25T01:52:46.609Z,28.07
2023-10-25T01:57:50.685Z,24.40
2023-10-25T02:02:52.995Z,27.77
2023-10-25T02:07:54.936Z,29.27
2023-10-25T02:12:56.863Z,28.77
2023-10-25T02:17:58.766Z,26.63
2023-10-25T02:23:02.916Z,29.03
2023-10-25T02:28:07.013Z,22.70
2023-10-25T02:33:09.019Z,25.20
2023-10-25T02:38:13.327Z,26.80
2023-10-25T02:43:15.202Z,25.10
2023-10-25T02:48:21.972Z,27.10
2023-10-25T02:53:23.830Z,26.57
2023-10-25T02:58:27.909Z,26.03
2023-10-25T03:03:31.702Z,26.83
2023-10-25T03:08:38.886Z,28.53
2023-10-25T03:13:40.862Z,23.70
2023-10-25T03:18:42.948Z,27.40
2023-10-25T03:23:44.889Z,24.90
2023-10-25T03:28:46.757Z,25.13
2023-10-25T03:33:49.471Z,24.53
2023-10-25T03:38:51.325Z,26.07
2023-10-25T03:43:53.520Z,22.70
2023-10-25T03:48:55.358Z,32.07
2023-10-25T03:53:58.613Z,24.57
2023-10-25T03:59:00.534Z,25.53
2023-10-25T04:04:04.739Z,29.80
2023-10-25T04:09:07.184Z,23.60
2023-10-25T04:14:08.979Z,24.20
2023-10-25T04:19:10.917Z,28.90
2023-10-25T04:24:12.890Z,26.03
2023-10-25T04:29:21.768Z,28.60
2023-10-25T04:34:23.749Z,27.10
2023-10-25T04:39:28.126Z,27.33
2023-10-25T04:44:32.910Z,24.77
2023-10-25T04:49:36.559Z,28.17
2023-10-25T04:54:38.420Z,25.73
2023-10-25T04:59:42.593Z,25.27
2023-10-25T05:04:47.211Z,31.43
2023-10-25T05:09:53.017Z,23.57
2023-10-25T05:14:55.351Z,28.50
2023-10-25T05:20:03.028Z,23.97
2023-10-25T05:25:12.095Z,33.03
2023-10-25T05:30:16.793Z,23.80
2023-10-25T05:35:19.161Z,24.80
2023-10-25T05:40:22.302Z,29.03
2023-10-25T05:45:24.282Z,27.30
2023-10-25T05:50:26.465Z,29.23
2023-10-25T05:55:28.940Z,26.20
2023-10-25T06:00:33.545Z,26.83
2023-10-25T06:05:38.676Z,25.80
2023-10-25T06:10:44.792Z,25.63
2023-10-25T06:15:46.758Z,35.03
2023-10-25T06:20:51.039Z,35.40
2023-10-25T06:25:53.051Z,29.77
2023-10-25T06:30:57.394Z,27.73
2023-10-25T06:36:01.969Z,34.10
2023-10-25T06:41:06.689Z,28.87
2023-10-25T06:46:14.884Z,32.00
2023-10-25T06:51:17.124Z,26.67
2023-10-25T06:56:19.577Z,34.43
2023-10-25T07:01:26.881Z,30.30
2023-10-25T07:06:31.553Z,32.33
2023-10-25T07:11:35.568Z,29.03
2023-10-25T07:16:37.879Z,35.30
2023-10-25T07:21:42.327Z,33.33
2023-10-25T07:26:44.182Z,27.40
2023-10-25T07:31:46.158Z,31.10
2023-10-25T07:36:48.145Z,30.57
2023-10-25T07:41:50.017Z,27.17
2023-10-25T07:46:52.045Z,30.77
2023-10-25T07:51:56.225Z,33.00
2023-10-25T08:02:05.120Z,24.97
2023-10-25T08:07:07.000Z,25.87
2023-10-25T08:12:11.408Z,24.77
2023-10-25T08:17:15.661Z,23.50
2023-10-25T08:22:19.783Z,20.00
2023-10-25T08:27:21.622Z,22.83
2023-10-25T08:32:23.990Z,22.57
2023-10-25T08:37:25.959Z,24.27
2023-10-25T08:42:29.937Z,24.57
2023-10-25T08:47:34.014Z,19.90
2023-10-25T08:52:40.640Z,23.40
2023-10-25T08:57:42.791Z,20.70
2023-10-25T09:02:55.139Z,19.77
2023-10-25T09:08:14.918Z,21.87
2023-10-25T09:13:17.374Z,18.80
2023-10-25T09:18:19.405Z,15.93
2023-10-25T09:23:21.362Z,17.23
2023-10-25T09:28:28.859Z,18.47
2023-10-25T09:33:31.763Z,17.98
2023-10-25T09:38:36.228Z,15.70
2023-10-25T09:43:41.690Z,19.98
2023-10-25T09:48:53.056Z,21.42
2023-10-25T09:54:13.559Z,20.10
2023-10-25T09:59:18.270Z,22.67
2023-10-25T10:04:45.776Z,17.48
2023-10-25T10:10:23.670Z,21.25
2023-10-25T10:16:01.964Z,24.33
2023-10-25T10:21:09.262Z,20.02
2023-10-25T10:26:12.262Z,18.05
2023-10-25T10:31:19.076Z,15.15
2023-10-25T10:36:28.643Z,20.77
2023-10-25T10:41:37.407Z,21.17
2023-10-25T10:46:46.846Z,16.42
2023-10-25T10:51:50.322Z,14.60
2023-10-25T10:56:53.214Z,13.52
2023-10-25T11:01:57.527Z,14.60
2023-10-25T11:07:01.630Z,19.38
2023-10-25T11:12:15.967Z,14.85
2023-10-25T11:17:18.228Z,16.40
2023-10-25T11:22:20.349Z,12.43
2023-10-25T11:27:22.237Z,14.65
2023-10-25T11:32:26.543Z,12.95
2023-10-25T11:37:28.705Z,11.55
2023-10-25T11:42:37.231Z,14.82
2023-10-25T11:47:41.704Z,10.57
2023-10-25T11:52:45.968Z,12.13
2023-10-25T11:57:47.813Z,13.98
2023-10-25T12:02:52.072Z,21.70
2023-10-25T12:07:57.186Z,14.73
2023-10-25T12:12:59.210Z,12.25
2023-10-25T12:18:01.205Z,10.60
2023-10-25T12:23:03.264Z,13.45
2023-10-25T12:28:05.984Z,12.85
2023-10-25T12:33:10.320Z,12.98
2023-10-25T12:38:12.273Z,12.98
2023-10-25T12:43:14.130Z,12.50
2023-10-25T12:48:18.519Z,15.02
2023-10-25T12:53:22.979Z,11.45
2023-10-25T12:58:24.959Z,11.75
2023-10-25T13:03:31.607Z,14.05
2023-10-25T13:08:36.683Z,13.48
2023-10-25T13:13:40.861Z,10.35
2023-10-25T13:18:43.044Z,10.32
2023-10-25T13:23:45.350Z,10.27
2023-10-25T13:28:55.966Z,9.45
2023-10-25T13:33:58.011Z,12.70
2023-10-25T13:38:59.934Z,10.13
2023-10-25T13:44:04.313Z,9.50
2023-10-25T13:49:06.262Z,9.70
2023-10-25T13:54:08.468Z,11.13
2023-10-25T13:59:12.549Z,11.27
2023-10-25T14:04:17.399Z,9.88
2023-10-25T14:09:23.728Z,10.93
2023-10-25T14:14:25.922Z,15.85
2023-10-25T14:19:28.205Z,9.90
2023-10-25T14:24:42.372Z,13.35
2023-10-25T14:29:49.805Z,12.32
2023-10-25T14:34:56.538Z,13.38
2023-10-25T14:40:02.264Z,15.10
2023-10-25T14:45:11.107Z,11.02
2023-10-25T14:50:15.498Z,12.18
2023-10-25T14:55:17.474Z,10.88
2023-10-25T15:00:19.759Z,12.55
2023-10-25T15:05:23.797Z,12.07
2023-10-25T15:10:29.280Z,10.60
2023-10-25T15:15:31.193Z,13.80
2023-10-25T15:20:37.177Z,9.65
2023-10-25T15:25:42.634Z,8.82
2023-10-25T15:30:45.537Z,10.30
2023-10-25T15:36:00.735Z,8.07
2023-10-25T15:41:16.554Z,9.63
2023-10-25T15:46:28.790Z,9.93
2023-10-25T15:51:32.009Z,13.85
2023-10-25T15:56:34.003Z,9.55
2023-10-25T16:01:51.462Z,10.13
2023-10-25T16:06:59.352Z,11.82
2023-10-25T16:12:03.440Z,6.25
2023-10-25T16:17:05.448Z,12.52
2023-10-25T16:22:08.740Z,14.70
2023-10-25T16:27:14.492Z,15.02
2023-10-25T16:32:19.242Z,15.32
2023-10-25T16:37:25.124Z,17.50
2023-10-25T16:42:28.848Z,12.73
2023-10-25T16:47:30.808Z,12.00
2023-10-25T16:52:35.574Z,14.77
2023-10-25T16:57:40.652Z,12.88
2023-10-25T17:02:45.068Z,14.48
2023-10-25T17:07:47.049Z,21.80
2023-10-25T17:12:51.208Z,13.32
2023-10-25T17:17:55.803Z,9.75
2023-10-25T17:22:57.829Z,9.88
2023-10-25T17:28:01.715Z,9.23
2023-10-25T17:33:06.079Z,9.63
2023-10-25T17:38:10.377Z,10.10
2023-10-25T17:43:13.085Z,8.05
2023-10-25T17:48:15.155Z,10.93
2023-10-25T17:53:18.075Z,11.93
2023-10-25T17:58:20.181Z,10.65
2023-10-25T18:03:22.385Z,17.42
2023-10-25T18:08:25.629Z,13.75
2023-10-25T18:13:27.900Z,13.18
2023-10-25T18:18:32.138Z,10.27
2023-10-25T18:23:35.536Z,10.32
2023-10-25T18:28:37.641Z,14.68
2023-10-25T18:33:39.971Z,11.45
2023-10-25T18:38:42.124Z,12.43
2023-10-25T18:43:44.084Z,15.35
2023-10-25T18:48:48.418Z,15.68
2023-10-25T18:53:50.914Z,17.70
2023-10-25T18:58:55.755Z,16.52
2023-10-25T19:03:57.836Z,15.70
2023-10-25T19:09:03.253Z,14.77
2023-10-25T19:14:05.959Z,14.00
2023-10-25T19:19:07.811Z,16.52
2023-10-25T19:24:09.765Z,20.48
2023-10-25T19:29:14.622Z,20.50
2023-10-25T19:34:16.549Z,22.52
2023-10-25T19:39:18.459Z,19.65
2023-10-25T19:44:20.326Z,24.27
2023-10-25T19:49:22.500Z,22.13
2023-10-25T19:54:24.385Z,25.45
2023-10-25T19:59:26.280Z,22.70
2023-10-25T20:04:31.594Z,26.23
2023-10-25T20:09:33.538Z,24.15
2023-10-25T20:14:42.416Z,25.85
2023-10-25T20:19:48.840Z,29.33
2023-10-25T20:24:53.298Z,24.23
2023-10-25T20:29:55.200Z,28.77
2023-10-25T20:35:00.455Z,37.75
2023-10-25T20:40:02.529Z,32.50
2023-10-25T20:45:04.918Z,40.28
2023-10-25T20:50:10.007Z,38.00
2023-10-25T20:55:14.247Z,38.50
2023-10-25T21:00:16.425Z,41.45
2023-10-25T21:05:18.910Z,47.38
2023-10-25T21:10:20.857Z,46.08
2023-10-25T21:15:23.148Z,42.67
2023-10-25T21:20:27.217Z,47.38
2023-10-25T21:25:31.061Z,49.80
2023-10-25T21:30:35.258Z,47.85
2023-10-25T21:35:37.429Z,45.63
2023-10-25T21:40:41.491Z,50.00
2023-10-25T21:45:52.326Z,50.08
2023-10-25T21:51:08.030Z,46.90
2023-10-25T21:56:23.461Z,42.33
2023-10-25T22:01:28.177Z,45.05
2023-10-25T22:06:32.901Z,45.67
2023-10-25T22:11:37.126Z,40.97
2023-10-25T22:16:40.187Z,43.78
2023-10-25T22:21:43.338Z,45.90
2023-10-25T22:26:45.360Z,38.03
2023-10-25T22:31:49.772Z,43.90
2023-10-25T22:36:52.989Z,38.05
2023-10-25T22:41:58.818Z,38.70
2023-10-25T22:47:00.792Z,43.50
2023-10-25T22:52:02.637Z,43.72
2023-10-25T22:57:09.891Z,39.30
2023-10-25T23:02:14.222Z,43.22
2023-10-25T23:07:16.708Z,39.80
2023-10-25T23:12:21.249Z,46.55
2023-10-25T23:17:23.194Z,41.38
2023-10-25T23:22:24.969Z,44.08
2023-10-25T23:27:26.859Z,46.47
2023-10-25T23:32:31.508Z,42.83
2023-10-25T23:37:33.336Z,43.78
2023-10-25T23:42:37.524Z,45.25
2023-10-25T23:47:39.500Z,47.53
2023-10-25T23:52:46.391Z,48.13
2023-10-25T23:57:50.601Z,45.30
